createdAt,value
2019-02-16T00:02:24.381Z,4.97
2019-02-16T00:04:54.565Z,5.92
2019-02-16T00:07:24.857Z,3.75
2019-02-16T00:09:55.007Z,4.78
2019-02-16T00:12:25.205Z,3.87
2019-02-16T00:14:55.354Z,3.77
2019-02-16T00:17:25.553Z,4.00
2019-02-16T00:19:55.722Z,4.45
2019-02-16T00:22:26.031Z,4.62
2019-02-16T00:24:56.134Z,4.75
2019-02-16T00:27:26.400Z,5.35
2019-02-16T00:29:56.562Z,7.92
2019-02-16T00:32:26.838Z,9.18
2019-02-16T00:34:56.996Z,9.73
2019-02-16T00:37:27.185Z,12.28
2019-02-16T00:39:57.403Z,20.43
2019-02-16T00:42:27.630Z,15.28
2019-02-16T00:44:57.910Z,22.93
2019-02-16T00:47:28.201Z,9.43
2019-02-16T00:49:58.501Z,11.57
2019-02-16T00:52:28.694Z,9.98
2019-02-16T00:54:58.856Z,7.70
2019-02-16T00:57:29.032Z,6.72
2019-02-16T00:59:59.179Z,7.85
2019-02-16T01:02:29.460Z,7.85
2019-02-16T01:04:59.621Z,6.50
2019-02-16T01:07:29.799Z,6.67
2019-02-16T01:09:59.950Z,5.35
2019-02-16T01:12:30.149Z,4.72
2019-02-16T01:15:00.316Z,4.92
2019-02-16T01:17:30.489Z,6.17
2019-02-16T01:20:00.688Z,4.95
2019-02-16T01:22:31.073Z,4.75
2019-02-16T01:25:01.354Z,4.78
2019-02-16T01:27:31.554Z,4.83
2019-02-16T01:30:01.713Z,5.22
2019-02-16T01:32:31.893Z,5.30
2019-02-16T01:35:02.086Z,5.53
2019-02-16T01:37:32.278Z,5.87
2019-02-16T01:40:02.433Z,5.80
2019-02-16T01:42:32.616Z,7.72
2019-02-16T01:45:02.806Z,5.15
2019-02-16T01:47:32.966Z,6.90
2019-02-16T01:50:03.695Z,6.75
2019-02-16T01:52:33.850Z,5.95
2019-02-16T01:55:04.777Z,7.70
2019-02-16T01:57:34.940Z,8.13
2019-02-16T02:00:07.471Z,7.83
2019-02-16T02:02:37.833Z,5.85
2019-02-16T02:05:08.137Z,5.28
2019-02-16T02:07:38.561Z,5.40
2019-02-16T02:10:09.526Z,6.60
2019-02-16T02:12:39.683Z,6.47
2019-02-16T02:15:10.337Z,6.37
2019-02-16T02:17:40.501Z,6.47
2019-02-16T02:20:10.689Z,6.12
2019-02-16T02:22:40.858Z,5.85
2019-02-16T02:25:11.414Z,6.10
2019-02-16T02:27:41.573Z,7.42
2019-02-16T02:30:11.894Z,5.90
2019-02-16T02:32:42.056Z,9.75
2019-02-16T02:35:12.245Z,7.10
2019-02-16T02:37:42.414Z,6.42
2019-02-16T02:40:12.606Z,7.17
2019-02-16T02:42:42.776Z,8.13
2019-02-16T02:45:13.070Z,6.25
2019-02-16T02:47:43.232Z,5.90
2019-02-16T02:50:13.522Z,7.33
2019-02-16T02:52:43.684Z,7.75
2019-02-16T02:55:13.969Z,8.30
2019-02-16T02:57:44.125Z,7.00
2019-02-16T03:00:14.548Z,7.60
2019-02-16T03:02:44.726Z,6.20
2019-02-16T03:05:14.924Z,7.20
2019-02-16T03:07:45.150Z,7.12
2019-02-16T03:10:15.339Z,8.23
2019-02-16T03:12:45.592Z,7.78
2019-02-16T03:15:16.285Z,6.37
2019-02-16T03:17:46.653Z,6.60
2019-02-16T03:20:16.835Z,6.70
2019-02-16T03:23:11.704Z,8.70
2019-02-16T03:25:53.689Z,6.37
2019-02-16T03:28:50.478Z,7.05
2019-02-16T03:31:29.533Z,6.60
2019-02-16T03:34:20.952Z,6.10
2019-02-16T03:37:17.966Z,8.10
2019-02-16T03:39:48.339Z,8.05
2019-02-16T03:42:18.521Z,8.88
2019-02-16T03:44:49.723Z,10.80
2019-02-16T03:47:19.948Z,8.78
2019-02-16T03:49:50.104Z,9.75
2019-02-16T03:52:20.264Z,9.83
2019-02-16T03:54:50.558Z,9.88
2019-02-16T03:57:20.839Z,9.10
2019-02-16T03:59:51.031Z,10.03
2019-02-16T04:02:21.306Z,8.33
2019-02-16T04:04:51.504Z,11.25
2019-02-16T04:07:21.766Z,8.80
2019-02-16T04:09:52.013Z,10.70
2019-02-16T04:12:22.141Z,9.83
2019-02-16T04:14:52.437Z,8.95
2019-02-16T04:17:22.760Z,10.05
2019-02-16T04:19:52.969Z,9.75
2019-02-16T04:22:24.911Z,7.45
2019-02-16T04:24:55.233Z,8.98
2019-02-16T04:27:25.408Z,10.43
2019-02-16T04:29:55.731Z,13.28
2019-02-16T04:32:26.034Z,11.73
2019-02-16T04:34:56.244Z,10.45
2019-02-16T04:37:26.441Z,11.43
2019-02-16T04:39:56.657Z,12.15
2019-02-16T04:42:26.841Z,10.55
2019-02-16T04:44:57.401Z,13.25
2019-02-16T04:47:27.610Z,11.55
2019-02-16T04:49:57.777Z,8.33
2019-02-16T04:52:34.359Z,10.10
2019-02-16T04:54:59.758Z,8.93
2019-02-16T04:57:29.924Z,8.10
2019-02-16T05:00:00.328Z,7.62
2019-02-16T05:02:30.588Z,8.38
2019-02-16T05:05:02.426Z,9.03
2019-02-16T05:07:32.586Z,8.50
2019-02-16T05:10:02.943Z,8.83
2019-02-16T05:12:33.117Z,10.80
2019-02-16T05:15:03.549Z,10.82
2019-02-16T05:17:33.719Z,9.85
2019-02-16T05:20:04.470Z,8.63
2019-02-16T05:22:43.833Z,8.93
2019-02-16T05:25:06.722Z,7.83
2019-02-16T05:27:37.015Z,8.35
2019-02-16T05:30:08.538Z,12.07
2019-02-16T05:32:38.693Z,10.15
2019-02-16T05:35:08.872Z,8.53
2019-02-16T05:37:39.141Z,9.85
2019-02-16T05:40:09.513Z,9.48
2019-02-16T05:42:39.736Z,8.63
2019-02-16T05:45:10.170Z,10.75
2019-02-16T05:47:40.549Z,10.20
2019-02-16T05:50:10.674Z,8.40
2019-02-16T05:52:41.245Z,9.80
2019-02-16T05:55:11.442Z,8.08
2019-02-16T05:57:41.604Z,8.00
2019-02-16T06:00:13.364Z,8.88
2019-02-16T06:02:43.532Z,9.18
2019-02-16T06:05:14.795Z,9.55
2019-02-16T06:07:45.014Z,11.28
2019-02-16T06:10:16.216Z,11.83
2019-02-16T06:12:46.517Z,11.65
2019-02-16T06:15:16.900Z,10.28
2019-02-16T06:17:47.237Z,16.37
2019-02-16T06:20:17.645Z,83.62
2019-02-16T06:22:48.238Z,68.85
2019-02-16T06:25:18.481Z,46.92
2019-02-16T06:27:48.682Z,39.80
2019-02-16T06:30:19.005Z,31.80
2019-02-16T06:32:49.229Z,27.50
2019-02-16T06:35:24.071Z,24.75
2019-02-16T06:37:54.293Z,30.12
2019-02-16T06:40:24.622Z,28.60
2019-02-16T06:42:54.941Z,23.65
2019-02-16T06:45:30.074Z,21.95
2019-02-16T06:48:00.620Z,18.15
2019-02-16T06:50:36.711Z,21.85
2019-02-16T06:53:02.747Z,19.17
2019-02-16T06:55:34.670Z,22.73
2019-02-16T06:58:04.993Z,18.48
2019-02-16T07:00:36.095Z,15.72
2019-02-16T07:03:06.427Z,21.57
2019-02-16T07:05:36.619Z,14.18
2019-02-16T07:08:06.936Z,15.25
2019-02-16T07:10:37.289Z,17.87
2019-02-16T07:13:07.910Z,15.63
2019-02-16T07:15:38.145Z,15.15
2019-02-16T07:18:12.686Z,14.78
2019-02-16T07:20:42.898Z,13.13
2019-02-16T07:23:21.982Z,12.93
2019-02-16T07:25:44.923Z,12.45
2019-02-16T07:28:15.127Z,12.07
2019-02-16T07:30:45.414Z,13.55
2019-02-16T07:33:15.621Z,11.78
2019-02-16T07:35:45.814Z,10.13
2019-02-16T07:38:16.156Z,15.63
2019-02-16T07:40:46.558Z,21.55
2019-02-16T07:43:18.407Z,24.60
2019-02-16T07:45:52.885Z,22.07
2019-02-16T07:48:36.593Z,20.05
2019-02-16T07:51:12.441Z,16.87
2019-02-16T07:53:44.401Z,18.75
2019-02-16T07:56:16.333Z,16.77
2019-02-16T07:58:48.793Z,16.75
2019-02-16T08:01:32.476Z,17.77
2019-02-16T08:04:04.437Z,17.73
2019-02-16T08:06:42.134Z,18.02
2019-02-16T08:09:16.610Z,15.75
2019-02-16T08:11:57.689Z,19.05
2019-02-16T08:14:44.404Z,16.32
2019-02-16T08:17:32.497Z,21.80
2019-02-16T08:20:13.275Z,18.65
2019-02-16T08:22:48.035Z,21.10
2019-02-16T08:25:23.482Z,19.15
2019-02-16T08:27:55.405Z,22.93
2019-02-16T08:30:29.897Z,22.37
2019-02-16T08:33:13.725Z,25.48
2019-02-16T08:35:48.536Z,21.75
2019-02-16T08:38:23.127Z,24.25
2019-02-16T08:40:54.946Z,21.05
2019-02-16T08:43:29.757Z,21.45
2019-02-16T08:46:04.160Z,22.95
2019-02-16T08:48:41.542Z,26.30
2019-02-16T08:51:22.095Z,22.52
2019-02-16T08:54:03.667Z,26.95
2019-02-16T08:56:46.410Z,22.93
2019-02-16T08:59:18.582Z,25.17
2019-02-16T09:01:50.701Z,22.05
2019-02-16T09:04:28.750Z,23.12
2019-02-16T09:07:09.393Z,23.02
2019-02-16T09:09:50.276Z,21.17
2019-02-16T09:12:38.060Z,24.12
2019-02-16T09:15:28.585Z,21.62
2019-02-16T09:18:00.427Z,18.52
2019-02-16T09:20:40.917Z,19.32
2019-02-16T09:23:12.758Z,17.10
2019-02-16T09:26:02.767Z,19.82
2019-02-16T09:28:40.549Z,17.85
2019-02-16T09:31:28.604Z,16.05
2019-02-16T09:34:16.442Z,16.40
2019-02-16T09:37:05.841Z,17.42
2019-02-16T09:39:44.025Z,16.55
2019-02-16T09:42:18.250Z,15.13
2019-02-16T09:44:59.289Z,17.73
2019-02-16T09:47:34.184Z,18.80
2019-02-16T09:50:13.085Z,21.40
2019-02-16T09:52:45.106Z,22.50
2019-02-16T09:55:22.935Z,20.62
2019-02-16T09:57:54.677Z,21.68
2019-02-16T10:00:29.493Z,19.12
2019-02-16T10:03:01.408Z,19.48
2019-02-16T10:05:45.054Z,15.85
2019-02-16T10:08:19.669Z,18.17
2019-02-16T10:11:09.537Z,15.85
2019-02-16T10:13:53.201Z,16.65
2019-02-16T10:16:25.104Z,20.15
2019-02-16T10:19:02.668Z,19.05
2019-02-16T10:21:34.521Z,17.50
2019-02-16T10:24:06.450Z,17.32
2019-02-16T10:26:58.541Z,17.07
2019-02-16T10:29:30.466Z,15.95
2019-02-16T10:32:08.299Z,17.57
2019-02-16T10:34:48.837Z,11.25
2019-02-16T10:37:23.715Z,9.05
2019-02-16T10:39:55.942Z,7.42
2019-02-16T10:42:27.764Z,6.72
2019-02-16T10:45:02.298Z,8.18
2019-02-16T10:47:37.190Z,8.38
2019-02-16T10:50:15.690Z,7.28
2019-02-16T10:53:03.867Z,5.72
2019-02-16T10:55:50.870Z,7.50
2019-02-16T10:58:37.461Z,5.90
2019-02-16T11:01:25.440Z,7.30
2019-02-16T11:03:57.244Z,6.45
2019-02-16T11:06:31.957Z,8.03
2019-02-16T11:09:09.687Z,12.00
2019-02-16T11:11:53.355Z,10.20
2019-02-16T11:14:41.531Z,9.38
2019-02-16T11:17:19.002Z,10.25
2019-02-16T11:20:05.744Z,8.58
2019-02-16T11:22:43.357Z,8.30
2019-02-16T11:25:21.257Z,9.53
2019-02-16T11:27:53.083Z,8.48
2019-02-16T11:30:42.700Z,7.45
2019-02-16T11:33:14.758Z,7.60
2019-02-16T11:35:52.389Z,8.20
2019-02-16T11:38:40.106Z,9.33
2019-02-16T11:41:18.592Z,8.60
2019-02-16T11:43:51.273Z,9.65
2019-02-16T11:46:25.356Z,8.78
2019-02-16T11:49:08.553Z,9.08
2019-02-16T11:51:41.180Z,10.55
2019-02-16T11:54:16.393Z,9.78
2019-02-16T11:56:48.482Z,11.40
2019-02-16T11:59:23.150Z,11.28
2019-02-16T12:01:55.270Z,9.95
2019-02-16T12:04:29.935Z,9.10
2019-02-16T12:07:08.172Z,9.40
2019-02-16T12:09:55.549Z,5.70
2019-02-16T12:12:27.470Z,5.75
2019-02-16T12:15:04.998Z,7.35
2019-02-16T12:17:51.931Z,7.40
2019-02-16T12:20:40.104Z,7.60
2019-02-16T12:23:20.447Z,8.63
2019-02-16T12:25:58.214Z,8.35
2019-02-16T12:28:31.663Z,6.47
2019-02-16T12:31:03.470Z,4.33
2019-02-16T12:33:35.341Z,4.67
2019-02-16T12:36:35.636Z,5.95
2019-02-16T12:39:08.741Z,5.65
2019-02-16T12:41:49.034Z,7.83
2019-02-16T12:44:26.966Z,5.97
2019-02-16T12:47:04.698Z,5.90
2019-02-16T12:49:45.529Z,4.58
2019-02-16T12:52:27.198Z,3.98
2019-02-16T12:55:03.567Z,4.35
2019-02-16T12:57:35.450Z,6.15
2019-02-16T13:00:10.924Z,6.30
2019-02-16T13:02:59.646Z,6.47
2019-02-16T13:05:31.860Z,6.95
2019-02-16T13:08:09.328Z,7.50
2019-02-16T13:10:53.174Z,8.53
2019-02-16T13:13:30.935Z,8.68
2019-02-16T13:16:05.281Z,7.53
2019-02-16T13:18:43.028Z,6.72
2019-02-16T13:21:17.824Z,7.42
2019-02-16T13:23:49.658Z,7.72
2019-02-16T13:26:21.482Z,7.28
2019-02-16T13:28:56.097Z,8.45
2019-02-16T13:31:42.658Z,8.03
2019-02-16T13:34:17.749Z,8.50
2019-02-16T13:36:50.525Z,7.58
2019-02-16T13:39:22.365Z,9.38
2019-02-16T13:42:00.145Z,7.87
2019-02-16T13:44:37.368Z,8.70
2019-02-16T13:47:09.273Z,8.95
2019-02-16T13:49:47.170Z,7.80
2019-02-16T13:52:24.682Z,9.10
2019-02-16T13:54:56.713Z,9.00
2019-02-16T13:57:44.606Z,7.78
2019-02-16T14:00:16.433Z,8.15
2019-02-16T14:02:48.237Z,9.15
2019-02-16T14:05:28.583Z,8.20
2019-02-16T14:08:11.323Z,7.67
2019-02-16T14:10:54.885Z,7.10
2019-02-16T14:13:29.365Z,7.40
2019-02-16T14:16:01.275Z,6.90
2019-02-16T14:18:31.441Z,6.40
2019-02-16T14:21:01.645Z,6.70
2019-02-16T14:23:31.797Z,7.33
2019-02-16T14:26:02.070Z,6.75
2019-02-16T14:28:32.333Z,6.50
2019-02-16T14:31:02.713Z,6.85
2019-02-16T14:33:32.882Z,6.42
2019-02-16T14:36:03.077Z,6.15
2019-02-16T14:38:34.878Z,7.83
2019-02-16T14:41:05.074Z,8.20
2019-02-16T14:43:35.237Z,6.58
2019-02-16T14:46:05.429Z,7.00
2019-02-16T14:48:39.247Z,6.75
2019-02-16T14:51:09.376Z,6.95
2019-02-16T14:53:39.636Z,5.95
2019-02-16T14:56:12.411Z,6.10
2019-02-16T14:58:42.583Z,6.25
2019-02-16T15:01:12.771Z,6.08
2019-02-16T15:03:42.930Z,5.45
2019-02-16T15:06:13.298Z,5.67
2019-02-16T15:08:43.466Z,5.58
2019-02-16T15:11:13.900Z,5.83
2019-02-16T15:13:45.118Z,6.15
2019-02-16T15:16:15.461Z,5.55
2019-02-16T15:18:45.634Z,5.80
2019-02-16T15:21:15.896Z,5.90
2019-02-16T15:23:46.067Z,5.50
2019-02-16T15:26:16.284Z,5.72
2019-02-16T15:28:46.442Z,6.10
2019-02-16T15:31:17.642Z,5.62
2019-02-16T15:33:47.793Z,5.00
2019-02-16T15:36:23.932Z,5.72
2019-02-16T15:38:52.375Z,5.25
2019-02-16T15:41:22.654Z,6.03
2019-02-16T15:43:52.818Z,6.00
2019-02-16T15:46:23.145Z,17.40
2019-02-16T15:48:53.331Z,12.00
2019-02-16T15:51:23.625Z,24.80
2019-02-16T15:53:53.801Z,11.05
2019-02-16T15:56:24.093Z,11.60
2019-02-16T15:58:54.341Z,9.15
2019-02-16T16:01:24.616Z,11.48
2019-02-16T16:03:54.914Z,9.05
2019-02-16T16:06:25.185Z,16.65
2019-02-16T16:08:59.101Z,11.83
2019-02-16T16:11:39.693Z,9.50
2019-02-16T16:14:27.523Z,8.93
2019-02-16T16:16:59.494Z,8.70
2019-02-16T16:19:31.425Z,8.40
2019-02-16T16:22:18.110Z,9.83
2019-02-16T16:25:06.417Z,8.83
2019-02-16T16:27:44.371Z,9.25
2019-02-16T16:30:27.850Z,9.23
2019-02-16T16:33:05.482Z,9.93
2019-02-16T16:35:39.998Z,10.23
2019-02-16T16:38:26.996Z,14.35
2019-02-16T16:40:58.838Z,12.63
2019-02-16T16:43:39.951Z,12.33
2019-02-16T16:46:28.341Z,14.43
2019-02-16T16:49:00.197Z,14.68
2019-02-16T16:51:34.545Z,12.75
2019-02-16T16:54:22.633Z,17.25
2019-02-16T16:57:12.749Z,14.85
2019-02-16T16:59:50.324Z,18.00
2019-02-16T17:02:25.198Z,19.60
2019-02-16T17:05:05.963Z,20.35
2019-02-16T17:07:43.731Z,16.20
2019-02-16T17:10:15.588Z,16.07
2019-02-16T17:12:56.342Z,17.07
2019-02-16T17:15:44.353Z,16.67
2019-02-16T17:18:27.757Z,16.02
2019-02-16T17:21:15.574Z,14.20
2019-02-16T17:23:49.902Z,15.75
2019-02-16T17:26:37.534Z,18.98
2019-02-16T17:29:03.729Z,21.62
2019-02-16T17:31:35.546Z,22.87
2019-02-16T17:34:19.160Z,25.90
2019-02-16T17:36:57.130Z,40.80
2019-02-16T17:39:43.722Z,21.40
2019-02-16T17:42:27.564Z,19.37
2019-02-16T17:45:16.045Z,18.37
2019-02-16T17:47:54.063Z,17.77
2019-02-16T17:50:34.613Z,17.70
2019-02-16T17:53:12.417Z,18.95
2019-02-16T17:55:44.337Z,19.98
2019-02-16T17:58:16.164Z,18.92
2019-02-16T18:00:48.005Z,23.62
2019-02-16T18:03:19.830Z,21.27
2019-02-16T18:05:57.246Z,20.88
2019-02-16T18:08:41.178Z,23.80
2019-02-16T18:11:22.072Z,33.55
2019-02-16T18:13:56.874Z,34.40
2019-02-16T18:16:28.684Z,26.65
2019-02-16T18:19:00.854Z,26.48
2019-02-16T18:21:35.448Z,26.62
2019-02-16T18:24:25.252Z,26.90
2019-02-16T18:26:59.858Z,33.45
2019-02-16T18:29:48.074Z,25.35
2019-02-16T18:32:19.985Z,26.25
2019-02-16T18:35:03.882Z,26.60
2019-02-16T18:37:38.494Z,22.90
2019-02-16T18:40:10.479Z,26.42
2019-02-16T18:42:42.630Z,23.00
2019-02-16T18:45:34.147Z,28.25
2019-02-16T18:48:06.018Z,28.25
2019-02-16T18:50:40.663Z,30.12
2019-02-16T18:53:32.168Z,27.07
2019-02-16T18:56:09.949Z,29.95
2019-02-16T18:58:47.958Z,27.05
2019-02-16T19:01:35.369Z,29.55
2019-02-16T19:04:16.336Z,27.48
2019-02-16T19:07:00.182Z,24.55
2019-02-16T19:09:40.825Z,24.12
2019-02-16T19:12:29.070Z,23.67
2019-02-16T19:15:17.211Z,21.82
2019-02-16T19:17:51.745Z,24.15
2019-02-16T19:20:23.591Z,22.45
2019-02-16T19:23:10.251Z,22.80
2019-02-16T19:25:42.202Z,22.15
2019-02-16T19:28:29.940Z,22.27
2019-02-16T19:31:10.579Z,23.27
2019-02-16T19:33:48.351Z,25.55
2019-02-16T19:36:20.138Z,25.00
2019-02-16T19:38:51.954Z,26.23
2019-02-16T19:41:29.913Z,24.18
2019-02-16T19:44:10.909Z,28.77
2019-02-16T19:46:46.485Z,40.23
2019-02-16T19:49:21.076Z,27.02
2019-02-16T19:52:07.968Z,28.23
2019-02-16T19:54:44.152Z,28.98
2019-02-16T19:57:26.917Z,29.82
2019-02-16T19:59:55.393Z,28.75
2019-02-16T20:02:28.831Z,29.60
2019-02-16T20:05:03.575Z,30.30
2019-02-16T20:07:38.390Z,31.02
2019-02-16T20:10:16.507Z,31.17
2019-02-16T20:12:54.197Z,32.45
2019-02-16T20:15:26.126Z,29.02
2019-02-16T20:17:57.968Z,30.23
2019-02-16T20:20:38.630Z,34.70
2019-02-16T20:23:13.034Z,35.70
2019-02-16T20:25:47.975Z,31.50
2019-02-16T20:28:35.627Z,34.80
2019-02-16T20:31:19.307Z,33.55
2019-02-16T20:33:56.877Z,32.58
2019-02-16T20:36:35.666Z,30.40
2019-02-16T20:39:20.644Z,31.62
2019-02-16T20:41:56.174Z,31.97
2019-02-16T20:44:33.811Z,35.52
2019-02-16T20:47:05.671Z,31.75
2019-02-16T20:49:37.470Z,37.35
2019-02-16T20:52:12.250Z,31.42
2019-02-16T20:54:52.972Z,32.98
2019-02-16T20:57:47.835Z,35.20
2019-02-16T21:00:16.252Z,29.70
2019-02-16T21:03:02.985Z,32.05
2019-02-16T21:05:51.071Z,36.58
2019-02-16T21:08:25.494Z,33.45
2019-02-16T21:10:57.397Z,32.03
2019-02-16T21:13:35.178Z,33.15
2019-02-16T21:16:06.997Z,36.63
2019-02-16T21:18:38.954Z,35.38
2019-02-16T21:21:19.225Z,33.78
2019-02-16T21:23:53.737Z,34.33
2019-02-16T21:26:36.587Z,32.65
2019-02-16T21:29:13.984Z,30.25
2019-02-16T21:31:48.529Z,31.00
2019-02-16T21:34:26.049Z,31.50
2019-02-16T21:37:03.655Z,32.53
2019-02-16T21:39:38.178Z,31.17
2019-02-16T21:42:12.787Z,34.08
2019-02-16T21:44:44.643Z,31.70
2019-02-16T21:47:16.468Z,32.55
2019-02-16T21:50:04.456Z,31.93
2019-02-16T21:52:39.282Z,31.27
2019-02-16T21:55:23.076Z,31.15
2019-02-16T21:58:13.046Z,26.40
2019-02-16T22:00:57.727Z,26.30
2019-02-16T22:03:29.646Z,27.67
2019-02-16T22:06:17.878Z,28.87
2019-02-16T22:09:01.679Z,29.07
2019-02-16T22:11:49.526Z,26.75
2019-02-16T22:14:19.693Z,29.10
2019-02-16T22:16:49.885Z,27.25
2019-02-16T22:19:20.121Z,26.20
2019-02-16T22:21:50.309Z,28.42
2019-02-16T22:24:20.626Z,27.77
2019-02-16T22:26:50.822Z,28.20
2019-02-16T22:29:21.021Z,26.00
2019-02-16T22:31:51.210Z,27.05
2019-02-16T22:34:21.425Z,27.13
2019-02-16T22:36:51.614Z,24.80
2019-02-16T22:39:21.837Z,28.07
2019-02-16T22:41:52.029Z,28.05
2019-02-16T22:44:22.250Z,24.90
2019-02-16T22:46:52.442Z,26.95
2019-02-16T22:49:22.678Z,26.40
2019-02-16T22:51:52.854Z,25.30
2019-02-16T22:54:23.068Z,27.27
2019-02-16T22:56:53.257Z,26.50
2019-02-16T22:59:23.479Z,24.77
2019-02-16T23:01:53.819Z,28.87
2019-02-16T23:04:24.001Z,26.07
2019-02-16T23:06:55.002Z,22.82
2019-02-16T23:09:26.777Z,23.42
2019-02-16T23:11:57.064Z,27.55
2019-02-16T23:14:27.285Z,26.50
2019-02-16T23:16:57.466Z,28.38
2019-02-16T23:19:27.705Z,25.52
2019-02-16T23:21:58.120Z,30.35
2019-02-16T23:24:28.506Z,31.10
2019-02-16T23:26:58.693Z,35.70
2019-02-16T23:29:28.882Z,37.45
2019-02-16T23:31:59.094Z,43.75
2019-02-16T23:34:29.560Z,35.73
2019-02-16T23:36:59.778Z,33.10
2019-02-16T23:39:29.963Z,36.65
2019-02-16T23:42:01.354Z,35.58
2019-02-16T23:44:31.541Z,32.35
2019-02-16T23:47:01.775Z,32.67
2019-02-16T23:49:31.978Z,31.40
2019-02-16T23:52:02.290Z,31.75
2019-02-16T23:54:32.489Z,42.15
2019-02-16T23:57:02.973Z,41.33
2019-02-16T23:59:33.406Z,34.03
